sensor_id;sensor_type;location;lat;lon;timestamp;pressure;altitude;pressure_sealevel;temperature;humidity
46942;BME280;32676;52.630;4.896;2022-08-16T00:00:09;98859.56;;;21.23;72.93
46942;BME280;32676;52.630;4.896;2022-08-16T00:02:38;98860.38;;;21.23;72.57
46942;BME280;32676;52.630;4.896;2022-08-16T00:05:09;98848.38;;;21.19;72.89
46942;BME280;32676;52.630;4.896;2022-08-16T00:07:37;98853.00;;;21.17;72.57
46942;BME280;32676;52.630;4.896;2022-08-16T00:10:04;98841.81;;;21.14;72.75
46942;BME280;32676;52.630;4.896;2022-08-16T00:12:33;98835.50;;;21.15;73.22
46942;BME280;32676;52.630;4.896;2022-08-16T00:15:05;98835.81;;;21.12;73.30
46942;BME280;32676;52.630;4.896;2022-08-16T00:17:32;98821.13;;;21.07;73.21
46942;BME280;32676;52.630;4.896;2022-08-16T00:19:58;98816.13;;;21.04;73.14
46942;BME280;32676;52.630;4.896;2022-08-16T00:22:25;98814.09;;;21.06;73.33
46942;BME280;32676;52.630;4.896;2022-08-16T00:24:52;98812.78;;;21.02;73.36
46942;BME280;32676;52.630;4.896;2022-08-16T00:27:19;98801.44;;;21.00;73.75
46942;BME280;32676;52.630;4.896;2022-08-16T00:29:46;98794.44;;;20.99;73.51
46942;BME280;32676;52.630;4.896;2022-08-16T00:32:13;98804.09;;;21.00;73.87
46942;BME280;32676;52.630;4.896;2022-08-16T00:34:40;98777.09;;;20.87;74.16
46942;BME280;32676;52.630;4.896;2022-08-16T00:37:07;98790.41;;;20.95;73.97
46942;BME280;32676;52.630;4.896;2022-08-16T00:39:33;98784.56;;;20.92;74.15
46942;BME280;32676;52.630;4.896;2022-08-16T00:42:00;98776.06;;;20.88;74.47
46942;BME280;32676;52.630;4.896;2022-08-16T00:44:26;98785.75;;;20.89;74.22
46942;BME280;32676;52.630;4.896;2022-08-16T00:46:58;98766.72;;;20.84;74.62
46942;BME280;32676;52.630;4.896;2022-08-16T00:49:27;98768.41;;;20.85;74.64
46942;BME280;32676;52.630;4.896;2022-08-16T00:51:53;98755.38;;;20.82;74.78
46942;BME280;32676;52.630;4.896;2022-08-16T00:54:20;98754.72;;;20.80;75.09
46942;BME280;32676;52.630;4.896;2022-08-16T00:56:49;98737.69;;;20.73;75.22
46942;BME280;32676;52.630;4.896;2022-08-16T00:59:18;98740.88;;;20.76;75.38
46942;BME280;32676;52.630;4.896;2022-08-16T01:01:47;98754.22;;;20.76;75.33
46942;BME280;32676;52.630;4.896;2022-08-16T01:04:18;98740.38;;;20.73;75.13
46942;BME280;32676;52.630;4.896;2022-08-16T01:06:45;98738.53;;;20.73;75.09
46942;BME280;32676;52.630;4.896;2022-08-16T01:09:11;98725.69;;;20.68;75.42
46942;BME280;32676;52.630;4.896;2022-08-16T01:11:40;98707.50;;;20.64;75.74
46942;BME280;32676;52.630;4.896;2022-08-16T01:14:12;98698.00;;;20.61;75.78
46942;BME280;32676;52.630;4.896;2022-08-16T01:16:41;98686.63;;;20.51;75.55
46942;BME280;32676;52.630;4.896;2022-08-16T01:19:14;98683.63;;;20.54;75.78
46942;BME280;32676;52.630;4.896;2022-08-16T01:21:49;98667.13;;;20.50;76.01
46942;BME280;32676;52.630;4.896;2022-08-16T01:24:26;98670.94;;;20.48;76.48
46942;BME280;32676;52.630;4.896;2022-08-16T01:26:56;98665.94;;;20.45;76.49
46942;BME280;32676;52.630;4.896;2022-08-16T01:29:28;98657.94;;;20.45;76.53
46942;BME280;32676;52.630;4.896;2022-08-16T01:31:57;98665.94;;;20.45;76.51
46942;BME280;32676;52.630;4.896;2022-08-16T01:34:23;98651.09;;;20.42;76.67
46942;BME280;32676;52.630;4.896;2022-08-16T01:36:57;98650.25;;;20.42;76.88
46942;BME280;32676;52.630;4.896;2022-08-16T01:39:25;98646.94;;;20.40;76.75
46942;BME280;32676;52.630;4.896;2022-08-16T01:41:52;98659.25;;;20.41;77.11
46942;BME280;32676;52.630;4.896;2022-08-16T01:44:18;98655.09;;;20.38;77.04
46942;BME280;32676;52.630;4.896;2022-08-16T01:46:47;98655.41;;;20.35;76.96
46942;BME280;32676;52.630;4.896;2022-08-16T01:49:16;98655.41;;;20.35;77.13
46942;BME280;32676;52.630;4.896;2022-08-16T01:51:46;98640.91;;;20.29;77.02
46942;BME280;32676;52.630;4.896;2022-08-16T01:54:13;98650.25;;;20.33;77.31
46942;BME280;32676;52.630;4.896;2022-08-16T01:56:41;98644.25;;;20.31;77.22
46942;BME280;32676;52.630;4.896;2022-08-16T01:59:10;98642.59;;;20.30;77.08
46942;BME280;32676;52.630;4.896;2022-08-16T02:01:37;98636.59;;;20.28;77.24
46942;BME280;32676;52.630;4.896;2022-08-16T02:04:03;98604.91;;;20.17;77.26
46942;BME280;32676;52.630;4.896;2022-08-16T02:06:30;98608.94;;;20.21;77.23
46942;BME280;32676;52.630;4.896;2022-08-16T02:08:58;98603.91;;;20.18;77.45
46942;BME280;32676;52.630;4.896;2022-08-16T02:11:26;98587.56;;;20.13;77.36
46942;BME280;32676;52.630;4.896;2022-08-16T02:13:54;98578.09;;;20.10;77.58
46942;BME280;32676;52.630;4.896;2022-08-16T02:16:20;98563.25;;;20.08;77.71
46942;BME280;32676;52.630;4.896;2022-08-16T02:18:47;98563.25;;;20.08;77.76
46942;BME280;32676;52.630;4.896;2022-08-16T02:21:15;98572.56;;;20.04;77.60
46942;BME280;32676;52.630;4.896;2022-08-16T02:23:43;98583.91;;;20.06;77.57
46942;BME280;32676;52.630;4.896;2022-08-16T02:26:11;98587.91;;;20.10;77.39
46942;BME280;32676;52.630;4.896;2022-08-16T02:28:38;98591.59;;;20.09;77.39
46942;BME280;32676;52.630;4.896;2022-08-16T02:31:08;98591.59;;;20.09;77.43
46942;BME280;32676;52.630;4.896;2022-08-16T02:33:35;98597.75;;;20.09;77.53
46942;BME280;32676;52.630;4.896;2022-08-16T02:36:03;98612.59;;;20.12;77.43
46942;BME280;32676;52.630;4.896;2022-08-16T02:38:30;98623.25;;;20.12;77.49
46942;BME280;32676;52.630;4.896;2022-08-16T02:40:58;98623.25;;;20.12;77.12
46942;BME280;32676;52.630;4.896;2022-08-16T02:43:28;98611.22;;;20.08;77.27
46942;BME280;32676;52.630;4.896;2022-08-16T02:45:55;98599.91;;;20.06;77.42
46942;BME280;32676;52.630;4.896;2022-08-16T02:48:23;98616.56;;;20.08;77.62
46942;BME280;32676;52.630;4.896;2022-08-16T02:50:50;98619.38;;;20.06;77.53
46942;BME280;32676;52.630;4.896;2022-08-16T02:53:17;98613.22;;;20.06;77.62
46942;BME280;32676;52.630;4.896;2022-08-16T02:55:44;98617.75;;;20.05;77.52
46942;BME280;32676;52.630;4.896;2022-08-16T02:58:10;98609.91;;;20.04;77.54
46942;BME280;32676;52.630;4.896;2022-08-16T03:00:37;98613.41;;;20.04;77.82
46942;BME280;32676;52.630;4.896;2022-08-16T03:03:04;98611.91;;;20.02;77.78
46942;BME280;32676;52.630;4.896;2022-08-16T03:05:33;98602.22;;;20.01;77.79
46942;BME280;32676;52.630;4.896;2022-08-16T03:08:00;98598.06;;;19.98;77.99
46942;BME280;32676;52.630;4.896;2022-08-16T03:10:26;98608.56;;;20.00;77.87
46942;BME280;32676;52.630;4.896;2022-08-16T03:12:53;98606.91;;;19.99;77.83
46942;BME280;32676;52.630;4.896;2022-08-16T03:15:21;98595.88;;;19.93;78.07
46942;BME280;32676;52.630;4.896;2022-08-16T03:17:47;98596.59;;;19.96;77.78
46942;BME280;32676;52.630;4.896;2022-08-16T03:20:15;98586.88;;;19.86;77.88
46942;BME280;32676;52.630;4.896;2022-08-16T03:22:43;98595.22;;;19.91;78.05
46942;BME280;32676;52.630;4.896;2022-08-16T03:25:11;98593.56;;;19.90;77.89
46942;BME280;32676;52.630;4.896;2022-08-16T03:27:39;98576.22;;;19.86;78.06
46942;BME280;32676;52.630;4.896;2022-08-16T03:30:08;98551.22;;;19.79;77.99
46942;BME280;32676;52.630;4.896;2022-08-16T03:32:35;98554.91;;;19.78;78.33
46942;BME280;32676;52.630;4.896;2022-08-16T03:35:02;98564.22;;;19.82;78.32
46942;BME280;32676;52.630;4.896;2022-08-16T03:37:29;98574.88;;;19.82;78.29
46942;BME280;32676;52.630;4.896;2022-08-16T03:39:57;98563.22;;;19.75;78.24
46942;BME280;32676;52.630;4.896;2022-08-16T03:42:24;98559.22;;;19.79;78.30
46942;BME280;32676;52.630;4.896;2022-08-16T03:44:51;98543.91;;;19.73;78.51
46942;BME280;32676;52.630;4.896;2022-08-16T03:47:17;98543.19;;;19.71;78.60
46942;BME280;32676;52.630;4.896;2022-08-16T03:49:44;98526.53;;;19.61;78.60
46942;BME280;32676;52.630;4.896;2022-08-16T03:52:11;98535.53;;;19.68;78.65
46942;BME280;32676;52.630;4.896;2022-08-16T03:54:38;98532.19;;;19.66;78.46
46942;BME280;32676;52.630;4.896;2022-08-16T03:57:06;98527.88;;;19.65;78.38
46942;BME280;32676;52.630;4.896;2022-08-16T03:59:32;98527.53;;;19.60;78.65
46942;BME280;32676;52.630;4.896;2022-08-16T04:02:00;98523.53;;;19.64;78.64
46942;BME280;32676;52.630;4.896;2022-08-16T04:04:27;98502.56;;;19.52;78.82
46942;BME280;32676;52.630;4.896;2022-08-16T04:06:53;98513.56;;;19.58;78.86
46942;BME280;32676;52.630;4.896;2022-08-16T04:09:20;98508.38;;;19.56;78.78
46942;BME280;32676;52.630;4.896;2022-08-16T04:11:47;98511.88;;;19.56;79.01
46942;BME280;32676;52.630;4.896;2022-08-16T04:14:14;98512.88;;;19.55;79.14
46942;BME280;32676;52.630;4.896;2022-08-16T04:16:41;98517.19;;;19.56;79.39
46942;BME280;32676;52.630;4.896;2022-08-16T04:19:07;98505.84;;;19.46;79.53
46942;BME280;32676;52.630;4.896;2022-08-16T04:21:35;98546.03;;;19.61;79.35
46942;BME280;32676;52.630;4.896;2022-08-16T04:24:02;98555.81;;;19.61;79.38
46942;BME280;32676;52.630;4.896;2022-08-16T04:26:29;98555.81;;;19.61;79.59
46942;BME280;32676;52.630;4.896;2022-08-16T04:28:56;98553.16;;;19.61;79.63
46942;BME280;32676;52.630;4.896;2022-08-16T04:31:25;98558.50;;;19.61;79.45
46942;BME280;32676;52.630;4.896;2022-08-16T04:33:52;98565.81;;;19.59;79.53
46942;BME280;32676;52.630;4.896;2022-08-16T04:36:23;98558.84;;;19.58;79.52
46942;BME280;32676;52.630;4.896;2022-08-16T04:38:52;98573.50;;;19.62;79.76
46942;BME280;32676;52.630;4.896;2022-08-16T04:41:18;98586.66;;;19.63;79.86
46942;BME280;32676;52.630;4.896;2022-08-16T04:43:45;98597.81;;;19.67;80.02
46942;BME280;32676;52.630;4.896;2022-08-16T04:46:12;98602.31;;;19.66;79.91
46942;BME280;32676;52.630;4.896;2022-08-16T04:48:42;98620.63;;;19.69;80.15
46942;BME280;32676;52.630;4.896;2022-08-16T04:51:09;98635.47;;;19.72;80.12
46942;BME280;32676;52.630;4.896;2022-08-16T04:53:36;98639.84;;;19.73;80.02
46942;BME280;32676;52.630;4.896;2022-08-16T04:56:02;98628.44;;;19.63;79.99
46942;BME280;32676;52.630;4.896;2022-08-16T04:58:29;98659.81;;;19.77;79.91
46942;BME280;32676;52.630;4.896;2022-08-16T05:00:58;98664.31;;;19.77;79.86
46942;BME280;32676;52.630;4.896;2022-08-16T05:03:25;98680.97;;;19.79;79.92
46942;BME280;32676;52.630;4.896;2022-08-16T05:05:53;98702.81;;;19.82;80.08
46942;BME280;32676;52.630;4.896;2022-08-16T05:08:20;98721.84;;;19.87;79.69
46942;BME280;32676;52.630;4.896;2022-08-16T05:10:47;98704.31;;;19.77;79.57
46942;BME280;32676;52.630;4.896;2022-08-16T05:13:14;98719.47;;;19.84;79.96
46942;BME280;32676;52.630;4.896;2022-08-16T05:15:42;98737.00;;;19.87;79.88
46942;BME280;32676;52.630;4.896;2022-08-16T05:18:08;98741.16;;;19.89;80.06
46942;BME280;32676;52.630;4.896;2022-08-16T05:20:35;98769.16;;;19.93;80.18
46942;BME280;32676;52.630;4.896;2022-08-16T05:23:03;98773.50;;;19.94;80.23
46942;BME280;32676;52.630;4.896;2022-08-16T05:25:29;98779.50;;;19.97;80.47
46942;BME280;32676;52.630;4.896;2022-08-16T05:27:56;98770.50;;;19.89;80.49
46942;BME280;32676;52.630;4.896;2022-08-16T05:30:24;98785.16;;;19.93;81.01
46942;BME280;32676;52.630;4.896;2022-08-16T05:32:50;98805.19;;;19.98;80.91
46942;BME280;32676;52.630;4.896;2022-08-16T05:35:17;98822.53;;;20.02;80.86
46942;BME280;32676;52.630;4.896;2022-08-16T05:37:44;98845.88;;;20.08;80.73
46942;BME280;32676;52.630;4.896;2022-08-16T05:40:13;98887.06;;;20.13;80.70
46942;BME280;32676;52.630;4.896;2022-08-16T05:42:39;98894.91;;;20.15;80.47
46942;BME280;32676;52.630;4.896;2022-08-16T05:45:06;98934.81;;;20.25;80.55
46942;BME280;32676;52.630;4.896;2022-08-16T05:47:33;98978.34;;;20.33;80.58
46942;BME280;32676;52.630;4.896;2022-08-16T05:50:00;99025.44;;;20.43;80.54
46942;BME280;32676;52.630;4.896;2022-08-16T05:52:26;99068.88;;;20.53;80.39
46942;BME280;32676;52.630;4.896;2022-08-16T05:54:53;99123.03;;;20.63;79.89
46942;BME280;32676;52.630;4.896;2022-08-16T05:57:21;99166.44;;;20.74;79.86
46942;BME280;32676;52.630;4.896;2022-08-16T05:59:48;99211.06;;;20.81;79.75
46942;BME280;32676;52.630;4.896;2022-08-16T06:02:15;99260.41;;;20.95;79.38
46942;BME280;32676;52.630;4.896;2022-08-16T06:04:42;99299.69;;;21.03;79.04
46942;BME280;32676;52.630;4.896;2022-08-16T06:07:09;99343.16;;;21.13;78.56
46942;BME280;32676;52.630;4.896;2022-08-16T06:09:36;99410.03;;;21.21;78.38
46942;BME280;32676;52.630;4.896;2022-08-16T06:12:04;99468.44;;;21.34;77.67
46942;BME280;32676;52.630;4.896;2022-08-16T06:14:31;99513.38;;;21.49;77.89
46942;BME280;32676;52.630;4.896;2022-08-16T06:16:58;99554.53;;;21.56;77.39
46942;BME280;32676;52.630;4.896;2022-08-16T06:19:24;99565.38;;;21.54;77.53
46942;BME280;32676;52.630;4.896;2022-08-16T06:21:52;99591.22;;;21.63;77.01
46942;BME280;32676;52.630;4.896;2022-08-16T06:24:19;99628.56;;;21.73;77.05
46942;BME280;32676;52.630;4.896;2022-08-16T06:26:45;99665.41;;;21.79;77.52
46942;BME280;32676;52.630;4.896;2022-08-16T06:29:12;99672.44;;;21.80;77.37
46942;BME280;32676;52.630;4.896;2022-08-16T06:31:40;99692.38;;;21.86;77.73
46942;BME280;32676;52.630;4.896;2022-08-16T06:34:06;99724.47;;;21.86;77.55
46942;BME280;32676;52.630;4.896;2022-08-16T06:36:32;99757.22;;;21.98;77.38
46942;BME280;32676;52.630;4.896;2022-08-16T06:38:59;99803.47;;;22.08;77.31
46942;BME280;32676;52.630;4.896;2022-08-16T06:41:25;99825.41;;;22.12;77.53
46942;BME280;32676;52.630;4.896;2022-08-16T06:43:52;99842.03;;;22.15;77.22
46942;BME280;32676;52.630;4.896;2022-08-16T06:46:25;99862.16;;;22.19;76.77
46942;BME280;32676;52.630;4.896;2022-08-16T06:48:53;99842.88;;;22.16;76.44
46942;BME280;32676;52.630;4.896;2022-08-16T06:51:20;99861.44;;;22.17;76.43
46942;BME280;32676;52.630;4.896;2022-08-16T06:53:47;99876.94;;;22.23;76.47
46942;BME280;32676;52.630;4.896;2022-08-16T06:56:13;99908.47;;;22.30;77.15
46942;BME280;32676;52.630;4.896;2022-08-16T06:58:40;99941.69;;;22.37;76.50
46942;BME280;32676;52.630;4.896;2022-08-16T07:01:06;99974.34;;;22.40;76.77
46942;BME280;32676;52.630;4.896;2022-08-16T07:03:33;100020.53;;;22.52;76.81
46942;BME280;32676;52.630;4.896;2022-08-16T07:06:01;100055.44;;;22.60;76.20
46942;BME280;32676;52.630;4.896;2022-08-16T07:08:27;100104.47;;;22.71;76.62
46942;BME280;32676;52.630;4.896;2022-08-16T07:10:55;100139.41;;;22.79;76.37
46942;BME280;32676;52.630;4.896;2022-08-16T07:13:23;100191.00;;;22.91;76.20
46942;BME280;32676;52.630;4.896;2022-08-16T07:15:50;100237.53;;;22.99;75.95
46942;BME280;32676;52.630;4.896;2022-08-16T07:18:17;100284.38;;;23.05;75.46
46942;BME280;32676;52.630;4.896;2022-08-16T07:20:45;100323.84;;;23.13;75.33
46942;BME280;32676;52.630;4.896;2022-08-16T07:23:15;100380.38;;;23.29;74.72
46942;BME280;32676;52.630;4.896;2022-08-16T07:25:41;100425.13;;;23.38;74.17
46942;BME280;32676;52.630;4.896;2022-08-16T07:28:10;100461.09;;;23.46;74.31
46942;BME280;32676;52.630;4.896;2022-08-16T07:30:37;100517.69;;;23.62;73.70
46942;BME280;32676;52.630;4.896;2022-08-16T07:33:04;100551.03;;;23.69;73.43
46942;BME280;32676;52.630;4.896;2022-08-16T07:35:31;100580.97;;;23.74;72.67
46942;BME280;32676;52.630;4.896;2022-08-16T07:38:02;100623.91;;;23.84;72.85
46942;BME280;32676;52.630;4.896;2022-08-16T07:40:31;100662.06;;;23.88;72.35
46942;BME280;32676;52.630;4.896;2022-08-16T07:42:59;100710.66;;;24.04;71.88
46942;BME280;32676;52.630;4.896;2022-08-16T07:45:25;100771.31;;;24.17;71.94
46942;BME280;32676;52.630;4.896;2022-08-16T07:47:52;100787.84;;;24.22;70.71
46942;BME280;32676;52.630;4.896;2022-08-16T07:50:19;100817.84;;;24.27;70.09
46942;BME280;32676;52.630;4.896;2022-08-16T07:52:45;100829.16;;;24.30;70.28
46942;BME280;32676;52.630;4.896;2022-08-16T07:55:14;100854.59;;;24.36;70.85
46942;BME280;32676;52.630;4.896;2022-08-16T07:57:43;100863.38;;;24.38;70.21
46942;BME280;32676;52.630;4.896;2022-08-16T08:00:11;100873.81;;;24.41;70.14
46942;BME280;32676;52.630;4.896;2022-08-16T08:02:38;100908.91;;;24.49;69.16
46942;BME280;32676;52.630;4.896;2022-08-16T08:05:05;100924.78;;;24.52;69.04
46942;BME280;32676;52.630;4.896;2022-08-16T08:07:32;100948.41;;;24.59;69.21
46942;BME280;32676;52.630;4.896;2022-08-16T08:09:59;100972.31;;;24.62;69.38
46942;BME280;32676;52.630;4.896;2022-08-16T08:12:25;101011.53;;;24.74;68.58
46942;BME280;32676;52.630;4.896;2022-08-16T08:14:53;101069.69;;;24.85;68.15
46942;BME280;32676;52.630;4.896;2022-08-16T08:17:19;101111.03;;;24.94;67.99
46942;BME280;32676;52.630;4.896;2022-08-16T08:19:47;101134.56;;;25.01;67.79
46942;BME280;32676;52.630;4.896;2022-08-16T08:22:13;101163.47;;;25.09;67.31
46942;BME280;32676;52.630;4.896;2022-08-16T08:24:40;101195.91;;;25.17;67.53
46942;BME280;32676;52.630;4.896;2022-08-16T08:27:07;101220.56;;;25.22;67.02
46942;BME280;32676;52.630;4.896;2022-08-16T08:29:35;101268.91;;;25.34;66.83
46942;BME280;32676;52.630;4.896;2022-08-16T08:32:04;101296.97;;;25.41;66.28
46942;BME280;32676;52.630;4.896;2022-08-16T08:34:31;101323.63;;;25.44;66.14
46942;BME280;32676;52.630;4.896;2022-08-16T08:36:58;101351.13;;;25.47;65.21
46942;BME280;32676;52.630;4.896;2022-08-16T08:39:26;101404.19;;;25.66;65.20
46942;BME280;32676;52.630;4.896;2022-08-16T08:41:53;101430.59;;;25.73;65.52
46942;BME280;32676;52.630;4.896;2022-08-16T08:44:19;101464.06;;;25.80;65.72
46942;BME280;32676;52.630;4.896;2022-08-16T08:46:46;101497.56;;;25.87;65.67
46942;BME280;32676;52.630;4.896;2022-08-16T08:49:14;101522.22;;;25.92;65.52
46942;BME280;32676;52.630;4.896;2022-08-16T08:51:40;101529.09;;;25.96;65.10
46942;BME280;32676;52.630;4.896;2022-08-16T08:54:07;101555.50;;;26.02;65.09
46942;BME280;32676;52.630;4.896;2022-08-16T08:56:34;101583.59;;;26.10;65.51
46942;BME280;32676;52.630;4.896;2022-08-16T08:59:01;101625.91;;;26.19;65.11
46942;BME280;32676;52.630;4.896;2022-08-16T09:01:30;101661.16;;;26.27;65.24
46942;BME280;32676;52.630;4.896;2022-08-16T09:03:57;101689.28;;;26.34;64.62
46942;BME280;32676;52.630;4.896;2022-08-16T09:06:26;101710.31;;;26.40;64.38
46942;BME280;32676;52.630;4.896;2022-08-16T09:08:52;101740.41;;;26.46;64.11
46942;BME280;32676;52.630;4.896;2022-08-16T09:11:19;101761.44;;;26.52;64.16
46942;BME280;32676;52.630;4.896;2022-08-16T09:13:45;101761.31;;;26.53;63.30
46942;BME280;32676;52.630;4.896;2022-08-16T09:16:12;101768.28;;;26.56;62.62
46942;BME280;32676;52.630;4.896;2022-08-16T09:18:40;101764.59;;;26.57;61.44
46942;BME280;32676;52.630;4.896;2022-08-16T09:21:07;101770.00;;;26.57;61.10
46942;BME280;32676;52.630;4.896;2022-08-16T09:23:35;101781.16;;;26.64;61.72
46942;BME280;32676;52.630;4.896;2022-08-16T09:26:02;101763.75;;;26.56;62.33
46942;BME280;32676;52.630;4.896;2022-08-16T09:28:29;101784.56;;;26.66;61.48
46942;BME280;32676;52.630;4.896;2022-08-16T09:30:56;101792.41;;;26.69;61.39
46942;BME280;32676;52.630;4.896;2022-08-16T09:33:22;101809.91;;;26.74;60.76
46942;BME280;32676;52.630;4.896;2022-08-16T09:35:49;101829.22;;;26.79;60.67
46942;BME280;32676;52.630;4.896;2022-08-16T09:38:16;101815.00;;;26.77;60.20
46942;BME280;32676;52.630;4.896;2022-08-16T09:40:45;101836.09;;;26.84;60.40
46942;BME280;32676;52.630;4.896;2022-08-16T09:43:14;101873.06;;;26.93;60.35
46942;BME280;32676;52.630;4.896;2022-08-16T09:45:41;101888.94;;;26.96;59.09
46942;BME280;32676;52.630;4.896;2022-08-16T09:48:08;101915.44;;;27.02;59.61
46942;BME280;32676;52.630;4.896;2022-08-16T09:50:36;101911.59;;;27.05;60.66
46942;BME280;32676;52.630;4.896;2022-08-16T09:53:07;101929.38;;;27.07;60.60
46942;BME280;32676;52.630;4.896;2022-08-16T09:55:33;101939.91;;;27.10;60.43
46942;BME280;32676;52.630;4.896;2022-08-16T09:58:01;101964.41;;;27.18;59.83
46942;BME280;32676;52.630;4.896;2022-08-16T10:00:28;101976.63;;;27.23;58.86
46942;BME280;32676;52.630;4.896;2022-08-16T10:02:55;101978.38;;;27.24;58.66
46942;BME280;32676;52.630;4.896;2022-08-16T10:05:23;101972.38;;;27.20;58.85
46942;BME280;32676;52.630;4.896;2022-08-16T10:07:49;101937.41;;;27.18;57.99
46942;BME280;32676;52.630;4.896;2022-08-16T10:10:17;101877.13;;;27.08;58.69
46942;BME280;32676;52.630;4.896;2022-08-16T10:12:44;101815.41;;;26.94;59.46
46942;BME280;32676;52.630;4.896;2022-08-16T10:15:30;101742.06;;;26.79;58.70
46942;BME280;32676;52.630;4.896;2022-08-16T10:17:58;101659.69;;;26.65;59.55
46942;BME280;32676;52.630;4.896;2022-08-16T10:20:25;101619.88;;;26.57;60.12
46942;BME280;32676;52.630;4.896;2022-08-16T10:22:52;101621.59;;;26.58;60.67
46942;BME280;32676;52.630;4.896;2022-08-16T10:25:19;101611.19;;;26.54;60.42
46942;BME280;32676;52.630;4.896;2022-08-16T10:27:46;101656.00;;;26.66;60.43
46942;BME280;32676;52.630;4.896;2022-08-16T10:30:15;101674.31;;;26.72;60.62
46942;BME280;32676;52.630;4.896;2022-08-16T10:32:43;101703.47;;;26.78;60.74
46942;BME280;32676;52.630;4.896;2022-08-16T10:35:10;101735.03;;;26.88;60.40
46942;BME280;32676;52.630;4.896;2022-08-16T10:37:36;101741.13;;;26.90;59.23
46942;BME280;32676;52.630;4.896;2022-08-16T10:40:04;101733.28;;;26.87;59.49
46942;BME280;32676;52.630;4.896;2022-08-16T10:42:31;101776.41;;;26.98;60.12
46942;BME280;32676;52.630;4.896;2022-08-16T10:44:58;101765.72;;;26.96;58.32
46942;BME280;32676;52.630;4.896;2022-08-16T10:47:24;101743.56;;;26.93;58.85
46942;BME280;32676;52.630;4.896;2022-08-16T10:49:52;101749.94;;;26.92;59.21
46942;BME280;32676;52.630;4.896;2022-08-16T10:52:19;101755.53;;;27.00;59.29
46942;BME280;32676;52.630;4.896;2022-08-16T10:54:46;101820.06;;;27.13;59.07
46942;BME280;32676;52.630;4.896;2022-08-16T10:57:13;101829.72;;;27.15;59.23
46942;BME280;32676;52.630;4.896;2022-08-16T10:59:40;101852.75;;;27.19;58.53
46942;BME280;32676;52.630;4.896;2022-08-16T11:02:07;101829.72;;;27.15;57.83
46942;BME280;32676;52.630;4.896;2022-08-16T11:04:34;101840.84;;;27.22;58.36
46942;BME280;32676;52.630;4.896;2022-08-16T11:07:02;101841.69;;;27.23;57.56
46942;BME280;32676;52.630;4.896;2022-08-16T11:09:29;101862.81;;;27.29;58.59
46942;BME280;32676;52.630;4.896;2022-08-16T11:11:56;101906.88;;;27.39;59.06
46942;BME280;32676;52.630;4.896;2022-08-16T11:14:22;101914.84;;;27.41;58.46
46942;BME280;32676;52.630;4.896;2022-08-16T11:16:49;101925.38;;;27.44;58.53
46942;BME280;32676;52.630;4.896;2022-08-16T11:19:16;101894.66;;;27.35;58.46
46942;BME280;32676;52.630;4.896;2022-08-16T11:21:43;101868.63;;;27.34;57.03
46942;BME280;32676;52.630;4.896;2022-08-16T11:24:11;101857.13;;;27.32;58.03
46942;BME280;32676;52.630;4.896;2022-08-16T11:26:38;101862.25;;;27.35;58.75
46942;BME280;32676;52.630;4.896;2022-08-16T11:29:05;101875.34;;;27.39;58.45
46942;BME280;32676;52.630;4.896;2022-08-16T11:31:34;101861.25;;;27.36;58.74
46942;BME280;32676;52.630;4.896;2022-08-16T11:34:00;101877.91;;;27.41;57.81
46942;BME280;32676;52.630;4.896;2022-08-16T11:36:27;101872.50;;;27.41;57.17
46942;BME280;32676;52.630;4.896;2022-08-16T11:38:53;101893.84;;;27.44;58.22
46942;BME280;32676;52.630;4.896;2022-08-16T11:41:21;101874.22;;;27.42;58.70
46942;BME280;32676;52.630;4.896;2022-08-16T11:43:49;101860.00;;;27.40;58.65
46942;BME280;32676;52.630;4.896;2022-08-16T11:46:15;101851.19;;;27.38;58.86
46942;BME280;32676;52.630;4.896;2022-08-16T11:48:45;101839.53;;;27.37;58.67
46942;BME280;32676;52.630;4.896;2022-08-16T11:51:12;101797.88;;;27.30;58.45
46942;BME280;32676;52.630;4.896;2022-08-16T11:53:39;101773.25;;;27.24;58.44
46942;BME280;32676;52.630;4.896;2022-08-16T11:56:06;101744.81;;;27.19;58.00
46942;BME280;32676;52.630;4.896;2022-08-16T11:58:34;101748.25;;;27.22;58.99
46942;BME280;32676;52.630;4.896;2022-08-16T12:01:04;101784.53;;;27.29;60.01
46942;BME280;32676;52.630;4.896;2022-08-16T12:03:32;101813.41;;;27.38;59.55
46942;BME280;32676;52.630;4.896;2022-08-16T12:06:00;101844.41;;;27.44;58.53
46942;BME280;32676;52.630;4.896;2022-08-16T12:08:28;101864.59;;;27.49;57.49
46942;BME280;32676;52.630;4.896;2022-08-16T12:10:55;101891.03;;;27.55;57.99
46942;BME280;32676;52.630;4.896;2022-08-16T12:13:24;101869.75;;;27.52;57.30
46942;BME280;32676;52.630;4.896;2022-08-16T12:15:52;101890.78;;;27.58;56.62
46942;BME280;32676;52.630;4.896;2022-08-16T12:18:20;101923.53;;;27.65;56.88
46942;BME280;32676;52.630;4.896;2022-08-16T12:20:46;101943.72;;;27.71;56.30
46942;BME280;32676;52.630;4.896;2022-08-16T12:23:13;101954.53;;;27.71;55.55
46942;BME280;32676;52.630;4.896;2022-08-16T12:25:39;101985.13;;;27.81;57.76
46942;BME280;32676;52.630;4.896;2022-08-16T12:28:07;102006.22;;;27.87;56.99
46942;BME280;32676;52.630;4.896;2022-08-16T12:30:37;102031.75;;;27.94;57.06
46942;BME280;32676;52.630;4.896;2022-08-16T12:33:07;102035.16;;;27.97;55.64
46942;BME280;32676;52.630;4.896;2022-08-16T12:35:36;102032.47;;;27.97;53.71
46942;BME280;32676;52.630;4.896;2022-08-16T12:38:04;102025.63;;;27.92;54.67
46942;BME280;32676;52.630;4.896;2022-08-16T12:40:42;102021.53;;;27.98;53.04
46942;BME280;32676;52.630;4.896;2022-08-16T12:43:11;102010.97;;;27.95;53.08
46942;BME280;32676;52.630;4.896;2022-08-16T12:45:44;101996.63;;;27.94;53.43
46942;BME280;32676;52.630;4.896;2022-08-16T12:48:14;101991.94;;;27.97;53.61
46942;BME280;32676;52.630;4.896;2022-08-16T12:50:59;102014.28;;;27.99;53.71
46942;BME280;32676;52.630;4.896;2022-08-16T12:53:26;102026.25;;;28.06;53.23
46942;BME280;32676;52.630;4.896;2022-08-16T12:55:52;102038.63;;;28.08;54.19